createdAt,value
2019-04-01T00:00:18.036Z,21.67
2019-04-01T00:02:48.462Z,21.80
2019-04-01T00:05:19.114Z,21.97
2019-04-01T00:07:49.543Z,21.87
2019-04-01T00:10:20.098Z,23.75
2019-04-01T00:12:50.555Z,21.27
2019-04-01T00:15:20.953Z,19.77
2019-04-01T00:17:51.342Z,19.60
2019-04-01T00:20:21.746Z,19.67
2019-04-01T00:22:52.350Z,18.87
2019-04-01T00:25:23.141Z,20.57
2019-04-01T00:27:53.626Z,20.63
2019-04-01T00:30:24.079Z,20.63
2019-04-01T00:32:54.545Z,21.23
2019-04-01T00:35:24.935Z,20.73
2019-04-01T00:37:55.403Z,20.73
2019-04-01T00:40:25.846Z,20.23
2019-04-01T00:43:04.115Z,20.20
2019-04-01T00:45:36.093Z,24.00
2019-04-01T00:48:07.034Z,21.20
2019-04-01T00:50:37.494Z,21.97
2019-04-01T00:53:07.932Z,21.53
2019-04-01T00:55:38.313Z,20.77
2019-04-01T00:58:08.708Z,21.03
2019-04-01T01:00:39.115Z,21.67
2019-04-01T01:03:09.507Z,21.27
2019-04-01T01:05:40.163Z,21.80
2019-04-01T01:08:10.544Z,25.30
2019-04-01T01:10:40.920Z,21.43
2019-04-01T01:13:11.419Z,22.00
2019-04-01T01:15:41.844Z,25.30
2019-04-01T01:18:12.258Z,22.60
2019-04-01T01:20:42.699Z,22.07
2019-04-01T01:23:13.033Z,21.57
2019-04-01T01:25:43.598Z,21.63
2019-04-01T01:28:13.953Z,22.43
2019-04-01T01:30:44.498Z,21.40
2019-04-01T01:33:14.897Z,21.00
2019-04-01T01:35:45.298Z,21.00
2019-04-01T01:38:15.731Z,20.73
2019-04-01T01:40:46.124Z,20.73
2019-04-01T01:43:16.540Z,24.95
2019-04-01T01:45:47.006Z,22.77
2019-04-01T01:48:17.400Z,21.90
2019-04-01T01:50:47.894Z,21.90
2019-04-01T01:53:18.917Z,21.00
2019-04-01T01:55:49.395Z,20.17
2019-04-01T01:58:19.748Z,22.77
2019-04-01T02:00:50.125Z,22.67
2019-04-01T02:03:20.716Z,23.63
2019-04-01T02:05:51.168Z,22.27
2019-04-01T02:08:21.600Z,22.50
2019-04-01T02:10:52.037Z,22.13
2019-04-01T02:13:22.546Z,23.47
2019-04-01T02:15:52.929Z,24.47
2019-04-01T02:18:23.433Z,23.33
2019-04-01T02:20:53.854Z,25.37
2019-04-01T02:23:24.300Z,23.33
2019-04-01T02:25:54.787Z,24.27
2019-04-01T02:28:25.216Z,23.67
2019-04-01T02:30:55.627Z,23.77
2019-04-01T02:33:26.039Z,22.93
2019-04-01T02:35:56.476Z,22.50
2019-04-01T02:38:26.908Z,23.67
2019-04-01T02:40:57.429Z,26.90
2019-04-01T02:43:27.876Z,23.43
2019-04-01T02:45:58.248Z,23.40
2019-04-01T02:48:28.709Z,21.47
2019-04-01T02:50:59.092Z,22.37
2019-04-01T02:53:29.642Z,22.80
2019-04-01T02:56:00.025Z,23.17
2019-04-01T02:58:30.423Z,23.67
2019-04-01T03:01:00.882Z,23.13
2019-04-01T03:03:31.413Z,23.10
2019-04-01T03:06:01.876Z,26.75
2019-04-01T03:08:32.248Z,24.30
2019-04-01T03:11:02.739Z,22.53
2019-04-01T03:13:33.329Z,21.40
2019-04-01T03:16:03.747Z,22.37
2019-04-01T03:18:34.176Z,23.00
2019-04-01T03:21:04.573Z,24.90
2019-04-01T03:23:34.966Z,23.67
2019-04-01T03:26:05.437Z,27.33
2019-04-01T03:28:35.845Z,27.33
2019-04-01T03:31:06.283Z,26.90
2019-04-01T03:33:36.720Z,26.03
2019-04-01T03:36:07.137Z,23.50
2019-04-01T03:38:37.566Z,28.95
2019-04-01T03:41:08.139Z,25.97
2019-04-01T03:43:40.425Z,23.13
2019-04-01T03:46:12.566Z,23.17
2019-04-01T03:48:43.538Z,25.30
2019-04-01T03:51:17.247Z,25.83
2019-04-01T03:53:50.900Z,25.67
2019-04-01T03:56:28.923Z,24.03
2019-04-01T03:59:06.225Z,24.27
2019-04-01T04:01:38.515Z,25.67
2019-04-01T04:04:16.940Z,26.77
2019-04-01T04:06:46.736Z,27.93
2019-04-01T04:09:22.056Z,26.43
2019-04-01T04:11:53.835Z,25.67
2019-04-01T04:14:24.455Z,29.20
2019-04-01T04:16:55.263Z,27.57
2019-04-01T04:19:39.115Z,28.87
2019-04-01T04:22:10.877Z,26.70
2019-04-01T04:24:43.964Z,26.17
2019-04-01T04:27:17.266Z,26.43
2019-04-01T04:30:17.738Z,25.20
2019-04-01T04:32:45.019Z,25.17
2019-04-01T04:35:19.310Z,24.47
2019-04-01T04:38:02.813Z,23.13
2019-04-01T04:40:46.925Z,28.57
2019-04-01T04:43:21.862Z,25.07
2019-04-01T04:46:02.807Z,25.23
2019-04-01T04:48:33.314Z,24.80
2019-04-01T04:51:12.845Z,24.73
2019-04-01T04:53:43.232Z,25.77
2019-04-01T04:56:13.723Z,25.20
2019-04-01T04:58:44.289Z,26.52
2019-04-01T05:01:14.704Z,30.92
2019-04-01T05:03:46.726Z,25.60
2019-04-01T05:06:20.159Z,29.27
2019-04-01T05:08:50.676Z,27.52
2019-04-01T05:11:21.127Z,28.35
2019-04-01T05:13:51.961Z,27.05
2019-04-01T05:16:25.165Z,30.43
2019-04-01T05:18:55.651Z,26.35
2019-04-01T05:21:28.979Z,27.13
2019-04-01T05:24:00.391Z,24.45
2019-04-01T05:26:31.733Z,26.85
2019-04-01T05:29:04.467Z,25.10
2019-04-01T05:31:38.478Z,24.65
2019-04-01T05:34:12.868Z,25.65
2019-04-01T05:36:43.429Z,25.60
2019-04-01T05:39:13.798Z,26.55
2019-04-01T05:41:44.501Z,26.45
2019-04-01T05:44:15.392Z,26.30
2019-04-01T05:46:45.794Z,23.95
2019-04-01T05:49:16.608Z,25.48
2019-04-01T05:51:46.983Z,25.82
2019-04-01T05:54:17.547Z,26.25
2019-04-01T05:56:47.937Z,26.07
2019-04-01T05:59:18.439Z,26.65
2019-04-01T06:01:50.273Z,27.32
2019-04-01T06:04:20.696Z,26.82
2019-04-01T06:06:57.679Z,28.75
2019-04-01T06:09:28.239Z,32.67
2019-04-01T06:11:58.844Z,30.95
2019-04-01T06:14:29.458Z,31.95
2019-04-01T06:17:00.056Z,30.23
2019-04-01T06:19:30.446Z,30.05
2019-04-01T06:22:00.901Z,29.85
2019-04-01T06:24:32.103Z,28.37
2019-04-01T06:27:03.010Z,28.00
2019-04-01T06:29:33.480Z,30.60
2019-04-01T06:32:03.962Z,29.13
2019-04-01T06:34:34.877Z,28.90
2019-04-01T06:37:05.491Z,29.27
2019-04-01T06:39:35.868Z,31.03
2019-04-01T06:42:07.253Z,28.37
2019-04-01T06:44:38.093Z,27.03
2019-04-01T06:47:08.529Z,27.93
2019-04-01T06:49:38.992Z,28.27
2019-04-01T06:52:12.066Z,27.00
2019-04-01T06:54:43.879Z,26.60
2019-04-01T06:57:14.763Z,28.57
2019-04-01T06:59:45.662Z,26.50
2019-04-01T07:02:16.274Z,27.60
2019-04-01T07:04:47.247Z,30.75
2019-04-01T07:07:19.378Z,29.17
2019-04-01T07:09:50.821Z,28.60
2019-04-01T07:12:21.389Z,27.37
2019-04-01T07:14:51.796Z,27.40
2019-04-01T07:17:22.275Z,29.23
2019-04-01T07:19:52.674Z,29.33
2019-04-01T07:22:23.119Z,27.90
2019-04-01T07:24:53.604Z,28.10
2019-04-01T07:27:24.056Z,28.93
2019-04-01T07:29:54.511Z,28.70
2019-04-01T07:32:25.027Z,28.70
2019-04-01T07:34:55.426Z,29.80
2019-04-01T07:37:26.266Z,31.40
2019-04-01T07:39:56.727Z,31.73
2019-04-01T07:42:27.097Z,31.47
2019-04-01T07:44:58.127Z,32.87
2019-04-01T07:47:31.055Z,31.60
2019-04-01T07:50:02.115Z,31.07
2019-04-01T07:52:32.586Z,32.77
2019-04-01T07:55:03.153Z,31.50
2019-04-01T07:57:33.673Z,35.87
2019-04-01T08:00:06.375Z,46.53
2019-04-01T08:02:36.834Z,40.20
2019-04-01T08:05:07.731Z,38.43
2019-04-01T08:07:38.187Z,40.13
2019-04-01T08:10:09.586Z,38.03
2019-04-01T08:12:40.300Z,37.47
2019-04-01T08:15:11.937Z,36.97
2019-04-01T08:17:42.454Z,39.07
2019-04-01T08:20:18.710Z,36.47
2019-04-01T08:22:51.333Z,36.00
2019-04-01T08:25:21.857Z,37.83
2019-04-01T08:27:57.464Z,36.67
2019-04-01T08:30:33.251Z,38.33
2019-04-01T08:33:03.773Z,38.43
2019-04-01T08:35:34.409Z,44.18
2019-04-01T08:38:04.997Z,40.50
2019-04-01T08:40:37.630Z,38.77
2019-04-01T08:43:08.116Z,40.00
2019-04-01T08:45:39.384Z,40.03
2019-04-01T08:48:11.405Z,39.80
2019-04-01T08:50:42.018Z,40.97
2019-04-01T08:53:12.689Z,39.57
2019-04-01T08:55:43.258Z,39.40
2019-04-01T08:58:13.837Z,38.05
2019-04-01T09:00:44.423Z,36.17
2019-04-01T09:03:16.595Z,32.83
2019-04-01T09:05:47.126Z,33.60
2019-04-01T09:08:17.634Z,37.80
2019-04-01T09:10:48.732Z,36.47
2019-04-01T09:13:19.453Z,36.03
2019-04-01T09:15:49.917Z,33.33
2019-04-01T09:18:22.776Z,33.53
2019-04-01T09:20:53.266Z,32.03
2019-04-01T09:23:23.915Z,31.90
2019-04-01T09:25:55.451Z,33.17
2019-04-01T09:28:25.949Z,32.63
2019-04-01T09:30:56.406Z,34.40
2019-04-01T09:33:26.797Z,34.13
2019-04-01T09:35:57.298Z,39.90
2019-04-01T09:38:27.737Z,35.28
2019-04-01T09:40:58.172Z,35.60
2019-04-01T09:43:33.416Z,36.95
2019-04-01T09:46:04.836Z,36.33
2019-04-01T09:48:36.238Z,33.73
2019-04-01T09:51:06.636Z,29.77
2019-04-01T09:53:37.200Z,28.60
2019-04-01T09:56:09.640Z,26.17
2019-04-01T09:58:40.199Z,25.97
2019-04-01T10:01:10.584Z,26.40
2019-04-01T10:03:41.056Z,25.67
2019-04-01T10:06:11.534Z,26.07
2019-04-01T10:08:43.584Z,25.13
2019-04-01T10:11:15.747Z,25.40
2019-04-01T10:13:46.373Z,23.67
2019-04-01T10:16:16.850Z,25.62
2019-04-01T10:18:47.278Z,25.05
2019-04-01T10:21:17.797Z,26.53
2019-04-01T10:23:48.341Z,24.18
2019-04-01T10:26:18.873Z,23.12
2019-04-01T10:28:49.550Z,22.22
2019-04-01T10:31:20.019Z,22.67
2019-04-01T10:33:50.478Z,21.70
2019-04-01T10:36:20.919Z,20.40
2019-04-01T10:38:51.500Z,20.88
2019-04-01T10:41:22.051Z,20.63
2019-04-01T10:43:52.437Z,19.02
2019-04-01T10:46:28.676Z,20.33
2019-04-01T10:48:59.124Z,17.27
2019-04-01T10:51:29.666Z,17.80
2019-04-01T10:54:00.579Z,18.25
2019-04-01T10:56:31.376Z,17.57
2019-04-01T10:59:05.258Z,16.62
2019-04-01T11:01:37.473Z,16.02
2019-04-01T11:04:11.888Z,16.67
2019-04-01T11:06:46.716Z,15.05
2019-04-01T11:09:17.687Z,16.32
2019-04-01T11:11:52.396Z,15.60
2019-04-01T11:14:23.843Z,14.80
2019-04-01T11:16:58.609Z,15.00
2019-04-01T11:19:29.818Z,16.32
2019-04-01T11:22:00.597Z,15.80
2019-04-01T11:24:31.025Z,15.70
2019-04-01T11:27:03.859Z,15.30
2019-04-01T11:29:34.674Z,15.43
2019-04-01T11:32:05.442Z,14.58
2019-04-01T11:34:36.119Z,14.45
2019-04-01T11:37:06.627Z,14.50
2019-04-01T11:39:38.856Z,13.55
2019-04-01T11:42:14.138Z,13.05
2019-04-01T11:44:49.362Z,12.90
2019-04-01T11:47:22.230Z,14.03
2019-04-01T11:49:54.440Z,12.85
2019-04-01T11:52:27.705Z,14.10
2019-04-01T11:55:20.655Z,13.60
2019-04-01T11:57:51.229Z,14.05
2019-04-01T12:00:26.227Z,13.88
2019-04-01T12:02:57.940Z,13.50
2019-04-01T12:05:28.371Z,13.22
2019-04-01T12:07:58.875Z,14.98
2019-04-01T12:10:30.936Z,14.13
2019-04-01T12:13:03.514Z,13.38
2019-04-01T12:15:35.495Z,13.40
2019-04-01T12:18:07.179Z,13.55
2019-04-01T12:20:39.166Z,14.05
2019-04-01T12:23:11.442Z,13.48
2019-04-01T12:25:41.865Z,15.03
2019-04-01T12:28:12.345Z,16.27
2019-04-01T12:30:42.823Z,15.03
2019-04-01T12:33:13.319Z,15.05
2019-04-01T12:35:49.806Z,14.47
2019-04-01T12:38:26.770Z,14.93
2019-04-01T12:40:55.758Z,14.47
2019-04-01T12:43:27.918Z,14.43
2019-04-01T12:45:59.913Z,15.08
2019-04-01T12:48:31.843Z,15.83
2019-04-01T12:51:03.635Z,14.23
2019-04-01T12:53:34.073Z,15.43
2019-04-01T12:56:05.982Z,15.05
2019-04-01T12:58:36.363Z,15.53
2019-04-01T13:01:06.854Z,15.28
2019-04-01T13:03:37.362Z,16.32
2019-04-01T13:06:07.767Z,15.88
2019-04-01T13:08:38.147Z,17.45
2019-04-01T13:11:08.619Z,17.45
2019-04-01T13:13:39.341Z,17.52
2019-04-01T13:16:12.012Z,17.07
2019-04-01T13:18:45.181Z,17.80
2019-04-01T13:21:18.758Z,17.70
2019-04-01T13:23:49.312Z,17.57
2019-04-01T13:26:23.465Z,19.00
2019-04-01T13:28:57.785Z,19.37
2019-04-01T13:31:29.743Z,19.42
2019-04-01T13:34:00.796Z,19.10
2019-04-01T13:36:37.223Z,20.70
2019-04-01T13:39:09.066Z,20.05
2019-04-01T13:41:42.762Z,19.02
2019-04-01T13:44:19.477Z,19.00
2019-04-01T13:46:51.728Z,19.12
2019-04-01T13:49:25.158Z,18.80
2019-04-01T13:51:55.585Z,18.35
2019-04-01T13:54:26.109Z,17.95
2019-04-01T13:56:56.576Z,19.23
2019-04-01T13:59:27.110Z,18.73
2019-04-01T14:02:01.531Z,18.70
2019-04-01T14:04:32.065Z,19.10
2019-04-01T14:07:07.096Z,19.05
2019-04-01T14:09:44.106Z,19.57
2019-04-01T14:12:17.306Z,19.32
2019-04-01T14:14:47.912Z,19.57
2019-04-01T14:17:19.262Z,19.30
2019-04-01T14:19:53.663Z,20.10
2019-04-01T14:22:26.942Z,19.12
2019-04-01T14:24:57.492Z,19.65
2019-04-01T14:27:27.997Z,20.23
2019-04-01T14:29:58.529Z,19.40
2019-04-01T14:32:31.606Z,20.13
2019-04-01T14:35:03.660Z,18.15
2019-04-01T14:37:37.167Z,17.47
2019-04-01T14:40:10.765Z,19.10
2019-04-01T14:42:41.326Z,20.12
2019-04-01T14:45:11.994Z,19.13
2019-04-01T14:47:56.643Z,20.20
2019-04-01T14:50:18.718Z,21.75
2019-04-01T14:52:49.772Z,21.43
2019-04-01T14:55:22.010Z,21.20
2019-04-01T14:57:54.866Z,21.37
2019-04-01T15:00:25.559Z,21.20
2019-04-01T15:02:56.003Z,21.17
2019-04-01T15:05:26.683Z,20.40
2019-04-01T15:07:57.139Z,20.10
2019-04-01T15:10:27.616Z,20.93
2019-04-01T15:13:05.027Z,19.70
2019-04-01T15:15:30.159Z,20.13
2019-04-01T15:18:00.867Z,19.10
2019-04-01T15:20:31.482Z,18.80
2019-04-01T15:23:01.922Z,18.83
2019-04-01T15:25:32.426Z,19.70
2019-04-01T15:28:02.937Z,18.10
2019-04-01T15:30:36.518Z,18.20
2019-04-01T15:33:07.447Z,17.73
2019-04-01T15:35:37.976Z,17.67
2019-04-01T15:38:08.466Z,16.70
2019-04-01T15:40:38.944Z,16.07
2019-04-01T15:43:09.346Z,15.23
2019-04-01T15:45:39.783Z,15.13
2019-04-01T15:48:10.290Z,14.33
2019-04-01T15:50:40.596Z,13.63
2019-04-01T15:53:11.052Z,13.10
2019-04-01T15:55:41.481Z,12.97
2019-04-01T15:58:12.046Z,11.73
2019-04-01T16:00:45.369Z,11.70
2019-04-01T16:03:15.746Z,11.70
2019-04-01T16:05:46.234Z,11.73
2019-04-01T16:08:19.426Z,11.67
2019-04-01T16:10:50.356Z,11.50
2019-04-01T16:13:21.342Z,11.57
2019-04-01T16:15:52.017Z,11.60
2019-04-01T16:18:22.489Z,11.13
2019-04-01T16:20:59.477Z,10.53
2019-04-01T16:23:30.336Z,11.93
2019-04-01T16:26:01.048Z,12.20
2019-04-01T16:28:31.531Z,11.47
2019-04-01T16:31:02.762Z,11.50
2019-04-01T16:33:33.185Z,11.83
2019-04-01T16:36:03.790Z,12.83
2019-04-01T16:38:40.145Z,12.30
2019-04-01T16:41:29.883Z,12.20
2019-04-01T16:43:59.922Z,12.75
2019-04-01T16:46:32.753Z,11.67
2019-04-01T16:49:03.295Z,12.50
2019-04-01T16:51:41.329Z,12.13
2019-04-01T16:54:20.292Z,11.43
2019-04-01T16:57:03.904Z,10.63
2019-04-01T16:59:34.812Z,10.73
2019-04-01T17:02:18.131Z,10.07
2019-04-01T17:04:49.595Z,11.00
2019-04-01T17:07:24.506Z,10.37
2019-04-01T17:10:01.066Z,10.67
2019-04-01T17:46:04.032Z,8.93
2019-04-01T17:48:38.034Z,8.70
2019-04-01T17:51:28.360Z,8.60
2019-04-01T17:54:19.173Z,9.00
2019-04-01T17:56:52.025Z,8.87
2019-04-01T17:59:27.263Z,8.60
2019-04-01T18:01:59.846Z,8.50
2019-04-01T18:04:35.206Z,9.07
2019-04-01T18:07:07.787Z,8.87
2019-04-01T18:09:40.045Z,9.60
2019-04-01T18:12:20.383Z,9.50
2019-04-01T18:14:54.028Z,9.10
2019-04-01T18:17:28.216Z,9.27
2019-04-01T18:20:01.444Z,9.27
2019-04-01T18:22:34.435Z,9.33
2019-04-01T18:25:14.709Z,9.00
2019-04-01T18:27:52.864Z,8.77
2019-04-01T18:30:28.012Z,9.13
2019-04-01T18:33:01.819Z,9.37
2019-04-01T18:35:35.881Z,9.13
2019-04-01T18:38:08.411Z,8.57
2019-04-01T18:40:42.049Z,9.43
2019-04-01T18:43:18.834Z,10.20
2019-04-01T18:45:53.172Z,9.43
2019-04-01T18:48:28.135Z,8.83
2019-04-01T18:51:01.869Z,9.90
2019-04-01T18:53:36.384Z,9.10
2019-04-01T18:56:10.886Z,9.53
2019-04-01T18:58:44.699Z,9.63
2019-04-01T19:01:17.985Z,9.10
2019-04-01T19:03:50.398Z,8.53
2019-04-01T19:06:24.118Z,8.43
2019-04-01T19:09:08.793Z,8.30
2019-04-01T19:11:34.267Z,8.80
2019-04-01T19:14:11.074Z,8.37
2019-04-01T19:16:51.370Z,8.30
2019-04-01T19:19:23.509Z,7.90
2019-04-01T19:21:56.570Z,7.90
2019-04-01T19:24:28.376Z,7.73
2019-04-01T19:27:03.030Z,7.07
2019-04-01T19:29:34.131Z,7.30
2019-04-01T19:32:04.952Z,7.60
2019-04-01T19:34:36.148Z,7.23
2019-04-01T19:37:07.597Z,7.33
2019-04-01T19:39:38.090Z,7.10
2019-04-01T19:42:08.527Z,7.80
2019-04-01T19:44:38.987Z,7.03
2019-04-01T19:47:09.393Z,6.80
2019-04-01T19:49:40.177Z,7.20
2019-04-01T19:52:10.823Z,7.07
2019-04-01T19:54:41.305Z,7.00
2019-04-01T19:57:11.802Z,7.13
2019-04-01T19:59:42.245Z,6.97
2019-04-01T20:02:14.370Z,7.57
2019-04-01T20:04:45.000Z,7.10
2019-04-01T20:07:17.063Z,7.87
2019-04-01T20:09:48.622Z,7.10
2019-04-01T20:12:19.151Z,7.40
2019-04-01T20:14:49.591Z,8.07
2019-04-01T20:17:20.037Z,7.90
2019-04-01T20:19:50.618Z,7.67
2019-04-01T20:22:21.071Z,8.13
2019-04-01T20:24:51.728Z,8.43
2019-04-01T20:27:26.368Z,7.77
2019-04-01T20:29:56.833Z,8.40
2019-04-01T20:32:27.181Z,8.50
2019-04-01T20:34:59.585Z,9.70
2019-04-01T20:37:31.270Z,9.03
2019-04-01T20:40:03.440Z,10.27
2019-04-01T20:42:35.242Z,10.53
2019-04-01T20:45:10.806Z,9.20
2019-04-01T20:47:40.692Z,9.77
2019-04-01T20:50:11.998Z,10.10
2019-04-01T20:52:42.607Z,9.77
2019-04-01T20:55:13.449Z,11.10
2019-04-01T20:57:46.080Z,10.67
2019-04-01T21:00:18.162Z,10.23
2019-04-01T21:02:48.581Z,10.87
2019-04-01T21:05:19.236Z,10.03
2019-04-01T21:07:49.637Z,9.87
2019-04-01T21:10:20.042Z,11.17
2019-04-01T21:12:50.459Z,11.13
2019-04-01T21:15:20.924Z,9.90
2019-04-01T21:17:52.069Z,10.00
2019-04-01T21:20:23.037Z,9.87
2019-04-01T21:22:53.493Z,9.60
2019-04-01T21:25:24.475Z,10.13
2019-04-01T21:27:56.280Z,9.87
2019-04-01T21:30:26.827Z,10.07
2019-04-01T21:32:57.217Z,10.03
2019-04-01T21:35:27.748Z,9.90
2019-04-01T21:37:58.172Z,9.97
2019-04-01T21:40:28.648Z,10.07
2019-04-01T21:42:59.049Z,10.95
2019-04-01T21:45:29.519Z,10.50
2019-04-01T21:47:59.943Z,10.13
2019-04-01T21:50:30.327Z,10.93
2019-04-01T21:53:01.221Z,10.40
2019-04-01T21:55:32.822Z,10.10
2019-04-01T21:58:03.258Z,10.47
2019-04-01T22:00:35.380Z,10.80
2019-04-01T22:03:05.843Z,9.73
2019-04-01T22:05:36.371Z,10.37
2019-04-01T22:08:07.208Z,10.30
2019-04-01T22:10:39.848Z,10.57
2019-04-01T22:13:10.316Z,10.00
2019-04-01T22:15:40.823Z,10.27
2019-04-01T22:18:11.213Z,11.03
2019-04-01T22:20:42.684Z,9.87
2019-04-01T22:23:13.213Z,9.87
2019-04-01T22:25:43.646Z,9.67
2019-04-01T22:28:14.216Z,10.30
2019-04-01T22:30:45.164Z,9.63
2019-04-01T22:33:16.589Z,9.50
2019-04-01T22:35:47.026Z,10.00
2019-04-01T22:38:24.928Z,9.37
2019-04-01T22:40:49.846Z,9.33
2019-04-01T22:43:20.308Z,10.82
2019-04-01T22:45:50.676Z,9.70
2019-04-01T22:48:21.201Z,8.77
2019-04-01T22:50:51.617Z,9.70
2019-04-01T22:53:22.052Z,8.57
2019-04-01T22:55:52.481Z,8.60
2019-04-01T22:58:23.172Z,9.53
2019-04-01T23:00:53.572Z,8.90
2019-04-01T23:03:24.098Z,9.07
2019-04-01T23:05:55.750Z,7.83
2019-04-01T23:08:26.436Z,7.80
2019-04-01T23:10:56.978Z,7.73
2019-04-01T23:13:27.527Z,7.50
2019-04-01T23:16:01.013Z,8.70
2019-04-01T23:18:31.469Z,8.40
2019-04-01T23:21:02.236Z,7.73
2019-04-01T23:23:35.621Z,7.97
2019-04-01T23:26:06.051Z,7.77
2019-04-01T23:28:36.542Z,7.43
2019-04-01T23:31:07.027Z,7.80
2019-04-01T23:33:37.561Z,7.07
2019-04-01T23:36:08.006Z,6.97
2019-04-01T23:38:38.432Z,6.73
2019-04-01T23:41:08.928Z,7.17
2019-04-01T23:43:39.385Z,6.93
2019-04-01T23:46:09.768Z,6.60
2019-04-01T23:48:42.056Z,6.43
2019-04-01T23:51:12.295Z,6.37
2019-04-01T23:53:42.741Z,7.07
2019-04-01T23:56:13.148Z,6.63
2019-04-01T23:58:43.536Z,6.97
